createdAt,value
2018-12-16T00:01:42.216Z,11.30
2018-12-16T00:04:09.328Z,11.40
2018-12-16T00:06:36.524Z,10.50
2018-12-16T00:09:05.531Z,11.00
2018-12-16T00:11:32.861Z,11.87
2018-12-16T00:13:59.983Z,11.30
2018-12-16T00:16:27.094Z,11.20
2018-12-16T00:18:54.168Z,11.40
2018-12-16T00:21:21.296Z,10.70
2018-12-16T00:23:48.633Z,11.60
2018-12-16T00:26:15.762Z,12.07
2018-12-16T00:28:42.862Z,11.10
2018-12-16T00:31:10.013Z,11.67
2018-12-16T00:33:38.147Z,12.20
2018-12-16T00:36:05.234Z,11.10
2018-12-16T00:38:32.383Z,11.90
2018-12-16T00:40:59.550Z,11.40
2018-12-16T00:43:26.659Z,11.00
2018-12-16T00:45:54.721Z,11.73
2018-12-16T00:48:21.916Z,11.07
2018-12-16T00:50:49.092Z,11.57
2018-12-16T00:53:16.712Z,11.53
2018-12-16T00:55:43.866Z,11.27
2018-12-16T00:58:10.969Z,12.80
2018-12-16T01:00:38.033Z,11.90
2018-12-16T01:03:05.219Z,10.73
2018-12-16T01:05:32.482Z,12.10
2018-12-16T01:07:59.637Z,11.30
2018-12-16T01:10:26.784Z,10.80
2018-12-16T01:12:54.172Z,11.50
2018-12-16T01:15:21.371Z,11.77
2018-12-16T01:17:48.848Z,11.90
2018-12-16T01:20:16.076Z,11.50
2018-12-16T01:22:43.680Z,11.10
2018-12-16T01:25:11.218Z,10.30
2018-12-16T01:27:38.484Z,11.50
2018-12-16T01:30:06.026Z,11.40
2018-12-16T01:32:33.295Z,11.50
2018-12-16T01:35:00.472Z,11.20
2018-12-16T01:37:27.604Z,11.40
2018-12-16T01:39:54.883Z,11.07
2018-12-16T01:42:21.969Z,11.50
2018-12-16T01:44:49.167Z,11.90
2018-12-16T01:47:16.241Z,11.00
2018-12-16T01:49:44.160Z,10.47
2018-12-16T01:52:11.297Z,11.30
2018-12-16T01:54:38.385Z,11.30
2018-12-16T01:57:05.486Z,11.37
2018-12-16T01:59:32.821Z,12.47
2018-12-16T02:01:59.976Z,12.00
2018-12-16T02:04:27.195Z,11.87
2018-12-16T02:06:55.013Z,11.67
2018-12-16T02:09:22.228Z,11.83
2018-12-16T02:11:49.500Z,12.80
2018-12-16T02:14:16.635Z,12.33
2018-12-16T02:16:44.472Z,12.93
2018-12-16T02:19:11.729Z,12.03
2018-12-16T02:21:38.984Z,12.90
2018-12-16T02:24:06.108Z,11.90
2018-12-16T02:26:33.464Z,13.17
2018-12-16T02:29:00.528Z,14.03
2018-12-16T02:31:27.591Z,13.10
2018-12-16T02:33:54.679Z,12.90
2018-12-16T02:36:21.761Z,12.80
2018-12-16T02:38:48.904Z,13.63
2018-12-16T02:41:16.123Z,13.40
2018-12-16T02:43:43.287Z,13.07
2018-12-16T02:46:10.410Z,12.20
2018-12-16T02:48:37.505Z,12.90
2018-12-16T02:51:04.770Z,13.33
2018-12-16T02:53:31.818Z,13.70
2018-12-16T02:56:00.148Z,12.67
2018-12-16T02:58:27.304Z,12.40
2018-12-16T03:00:54.393Z,12.20
2018-12-16T03:03:21.512Z,13.07
2018-12-16T03:05:48.807Z,12.20
2018-12-16T03:08:16.113Z,12.50
2018-12-16T03:10:43.698Z,11.90
2018-12-16T03:13:10.847Z,12.80
2018-12-16T03:15:38.416Z,12.40
2018-12-16T03:18:05.576Z,12.97
2018-12-16T03:20:32.811Z,13.80
2018-12-16T03:22:59.939Z,12.87
2018-12-16T03:25:27.079Z,12.97
2018-12-16T03:27:55.297Z,11.97
2018-12-16T03:30:23.430Z,12.60
2018-12-16T03:32:50.865Z,12.67
2018-12-16T03:35:18.207Z,12.20
2018-12-16T03:37:45.958Z,12.47
2018-12-16T03:40:13.176Z,12.40
2018-12-16T03:42:40.381Z,13.57
2018-12-16T03:45:07.513Z,11.97
2018-12-16T03:47:34.667Z,12.63
2018-12-16T03:50:01.894Z,12.37
2018-12-16T03:52:29.060Z,12.93
2018-12-16T03:54:56.181Z,12.67
2018-12-16T03:57:23.656Z,13.20
2018-12-16T03:59:52.659Z,12.30
2018-12-16T04:02:19.795Z,12.47
2018-12-16T04:04:46.902Z,14.00
2018-12-16T04:07:14.677Z,12.50
2018-12-16T04:09:42.762Z,12.70
2018-12-16T04:12:09.833Z,13.30
2018-12-16T04:14:37.068Z,13.27
2018-12-16T04:17:05.144Z,12.60
2018-12-16T04:19:32.215Z,13.90
2018-12-16T04:21:59.333Z,13.70
2018-12-16T04:24:26.398Z,13.00
2018-12-16T04:26:53.455Z,12.63
2018-12-16T04:29:20.535Z,13.63
2018-12-16T04:31:47.645Z,13.00
2018-12-16T04:34:14.756Z,12.07
2018-12-16T04:36:41.829Z,14.20
2018-12-16T04:39:08.994Z,13.47
2018-12-16T04:41:36.150Z,12.97
2018-12-16T04:44:03.605Z,13.13
2018-12-16T04:46:30.790Z,13.87
2018-12-16T04:48:57.972Z,12.40
2018-12-16T04:51:25.096Z,11.93
2018-12-16T04:53:52.546Z,11.93
2018-12-16T04:56:20.464Z,12.40
2018-12-16T04:58:47.604Z,12.70
2018-12-16T05:01:15.284Z,12.97
2018-12-16T05:03:42.430Z,12.13
2018-12-16T05:06:09.809Z,12.77
2018-12-16T05:08:36.887Z,12.40
2018-12-16T05:11:03.985Z,11.73
2018-12-16T05:13:31.084Z,12.33
2018-12-16T05:15:58.337Z,12.60
2018-12-16T05:18:25.897Z,13.10
2018-12-16T05:20:53.038Z,13.47
2018-12-16T05:23:20.264Z,12.43
2018-12-16T05:25:47.440Z,13.03
2018-12-16T05:28:14.628Z,14.00
2018-12-16T05:30:41.740Z,14.60
2018-12-16T05:33:08.897Z,13.70
2018-12-16T05:35:36.011Z,14.50
2018-12-16T05:38:03.294Z,12.30
2018-12-16T05:40:30.482Z,12.23
2018-12-16T05:42:57.633Z,13.13
2018-12-16T05:45:25.012Z,12.30
2018-12-16T05:47:52.090Z,13.23
2018-12-16T05:50:20.417Z,12.60
2018-12-16T05:52:47.579Z,12.57
2018-12-16T05:55:14.695Z,12.60
2018-12-16T05:57:41.738Z,12.80
2018-12-16T06:00:08.976Z,12.97
2018-12-16T06:02:36.068Z,13.00
2018-12-16T06:05:03.228Z,13.53
2018-12-16T06:07:30.297Z,14.40
2018-12-16T06:09:57.365Z,13.47
2018-12-16T06:12:24.500Z,13.70
2018-12-16T06:14:51.607Z,12.50
2018-12-16T06:17:18.695Z,13.00
2018-12-16T06:19:45.776Z,12.23
2018-12-16T06:22:13.131Z,14.07
2018-12-16T06:24:40.224Z,12.10
2018-12-16T06:27:07.729Z,12.57
2018-12-16T06:29:34.924Z,12.50
2018-12-16T06:32:02.020Z,12.33
2018-12-16T06:34:29.104Z,13.10
2018-12-16T06:36:56.211Z,11.60
2018-12-16T06:39:23.321Z,13.20
2018-12-16T06:41:50.612Z,11.50
2018-12-16T06:44:17.823Z,12.80
2018-12-16T06:46:45.020Z,13.10
2018-12-16T06:49:12.245Z,11.57
2018-12-16T06:51:39.483Z,12.17
2018-12-16T06:54:06.816Z,12.60
2018-12-16T06:56:33.882Z,12.20
2018-12-16T06:59:00.994Z,13.20
2018-12-16T07:01:28.060Z,13.03
2018-12-16T07:03:55.128Z,13.80
2018-12-16T07:06:22.215Z,12.17
2018-12-16T07:08:49.511Z,11.80
2018-12-16T07:11:16.591Z,12.53
2018-12-16T07:13:44.207Z,13.70
2018-12-16T07:16:11.384Z,12.73
2018-12-16T07:18:38.578Z,13.57
2018-12-16T07:21:05.824Z,13.17
2018-12-16T07:23:33.911Z,12.27
2018-12-16T07:26:01.130Z,11.80
2018-12-16T07:28:28.285Z,12.37
2018-12-16T07:30:55.525Z,13.57
2018-12-16T07:33:22.648Z,13.10
2018-12-16T07:35:49.873Z,13.13
2018-12-16T07:38:17.018Z,12.97
2018-12-16T07:40:44.120Z,13.33
2018-12-16T07:43:11.327Z,13.17
2018-12-16T07:45:38.398Z,13.97
2018-12-16T07:48:05.534Z,14.90
2018-12-16T07:50:32.700Z,13.30
2018-12-16T07:52:59.832Z,14.33
2018-12-16T07:55:27.104Z,14.30
2018-12-16T07:57:54.306Z,13.33
2018-12-16T08:00:21.945Z,14.03
2018-12-16T08:02:49.136Z,14.70
2018-12-16T08:05:16.328Z,14.47
2018-12-16T08:07:43.452Z,14.70
2018-12-16T08:10:10.526Z,14.30
2018-12-16T08:12:37.663Z,15.87
2018-12-16T08:15:05.549Z,14.90
2018-12-16T08:17:32.655Z,15.63
2018-12-16T08:19:59.764Z,14.43
2018-12-16T08:22:26.884Z,17.00
2018-12-16T08:24:54.018Z,15.53
2018-12-16T08:27:21.107Z,14.80
2018-12-16T08:29:48.356Z,16.03
2018-12-16T08:32:15.477Z,14.80
2018-12-16T08:34:42.644Z,14.73
2018-12-16T08:37:10.456Z,15.63
2018-12-16T08:39:37.584Z,14.00
2018-12-16T08:42:04.802Z,16.20
2018-12-16T08:44:31.865Z,15.33
2018-12-16T08:46:59.116Z,14.93
2018-12-16T08:49:26.169Z,15.53
2018-12-16T08:51:53.333Z,15.20
2018-12-16T08:54:20.440Z,15.20
2018-12-16T08:56:48.216Z,15.90
2018-12-16T08:59:15.298Z,16.60
2018-12-16T09:01:42.494Z,15.73
2018-12-16T09:04:10.123Z,14.77
2018-12-16T09:06:37.259Z,16.50
2018-12-16T09:09:07.095Z,15.60
2018-12-16T09:11:34.276Z,16.27
2018-12-16T09:14:01.448Z,15.20
2018-12-16T09:16:28.583Z,15.70
2018-12-16T09:18:55.675Z,16.10
2018-12-16T09:21:22.821Z,16.17
2018-12-16T09:23:49.968Z,15.83
2018-12-16T09:26:17.399Z,15.60
2018-12-16T09:28:44.504Z,15.63
2018-12-16T09:31:11.595Z,15.83
2018-12-16T09:33:38.684Z,16.23
2018-12-16T09:36:05.795Z,15.83
2018-12-16T09:38:32.925Z,15.67
2018-12-16T09:41:00.204Z,16.73
2018-12-16T09:43:27.319Z,16.37
2018-12-16T09:45:55.348Z,14.83
2018-12-16T09:48:22.469Z,14.83
2018-12-16T09:50:49.758Z,15.00
2018-12-16T09:53:16.869Z,14.33
2018-12-16T09:55:44.358Z,15.00
2018-12-16T09:58:11.581Z,13.70
2018-12-16T10:00:38.698Z,14.60
2018-12-16T10:03:06.317Z,13.20
2018-12-16T10:05:33.596Z,13.67
2018-12-16T10:08:01.024Z,14.30
2018-12-16T10:10:28.811Z,12.20
2018-12-16T10:12:55.950Z,12.93
2018-12-16T10:15:23.152Z,13.70
2018-12-16T10:17:50.259Z,12.83
2018-12-16T10:20:17.347Z,12.60
2018-12-16T10:22:44.448Z,13.60
2018-12-16T10:25:11.628Z,14.60
2018-12-16T10:27:38.745Z,13.87
2018-12-16T10:30:07.836Z,15.30
2018-12-16T10:32:35.009Z,16.80
2018-12-16T10:35:02.552Z,16.73
2018-12-16T10:37:29.758Z,17.43
2018-12-16T10:39:57.042Z,15.80
2018-12-16T10:42:24.377Z,17.47
2018-12-16T10:44:51.916Z,17.37
2018-12-16T10:47:19.126Z,17.43
2018-12-16T10:49:46.250Z,16.63
2018-12-16T10:52:13.352Z,17.60
2018-12-16T10:54:40.464Z,17.40
2018-12-16T10:57:07.631Z,15.77
2018-12-16T10:59:34.753Z,16.40
2018-12-16T11:02:01.916Z,16.90
2018-12-16T11:04:29.931Z,15.50
2018-12-16T11:06:57.065Z,16.60
2018-12-16T11:09:24.153Z,17.70
2018-12-16T11:11:51.343Z,16.67
2018-12-16T11:14:18.435Z,17.33
2018-12-16T11:16:45.541Z,15.80
2018-12-16T11:19:12.652Z,15.30
2018-12-16T11:21:39.717Z,15.67
2018-12-16T11:24:06.844Z,14.90
2018-12-16T11:26:33.918Z,15.87
2018-12-16T11:29:01.052Z,16.47
2018-12-16T11:31:28.093Z,17.63
2018-12-16T11:33:55.208Z,16.13
2018-12-16T11:36:22.260Z,15.00
2018-12-16T11:38:49.381Z,13.13
2018-12-16T11:41:16.464Z,15.10
2018-12-16T11:43:43.777Z,14.20
2018-12-16T11:46:11.313Z,15.10
2018-12-16T11:48:38.485Z,15.70
2018-12-16T11:51:05.632Z,14.93
2018-12-16T11:53:32.762Z,14.57
2018-12-16T11:56:00.023Z,14.43
2018-12-16T11:58:27.138Z,16.90
2018-12-16T12:00:54.698Z,14.83
2018-12-16T12:03:21.912Z,14.67
2018-12-16T12:05:49.232Z,15.67
2018-12-16T12:08:16.392Z,15.90
2018-12-16T12:10:43.649Z,14.70
2018-12-16T12:13:10.835Z,16.40
2018-12-16T12:15:38.039Z,15.37
2018-12-16T12:18:05.159Z,15.30
2018-12-16T12:20:32.347Z,13.63
2018-12-16T12:22:59.444Z,14.10
2018-12-16T12:25:26.558Z,14.27
2018-12-16T12:27:53.903Z,13.70
2018-12-16T12:30:23.819Z,14.00
2018-12-16T12:32:51.922Z,15.67
2018-12-16T12:35:19.850Z,14.20
2018-12-16T12:37:47.826Z,13.27
2018-12-16T12:40:14.971Z,13.43
2018-12-16T12:42:42.158Z,13.17
2018-12-16T12:45:09.456Z,14.47
2018-12-16T12:47:36.662Z,14.03
2018-12-16T12:50:04.226Z,13.83
2018-12-16T12:52:31.311Z,13.83
2018-12-16T12:54:58.413Z,13.53
2018-12-16T12:57:26.596Z,13.70
2018-12-16T12:59:53.789Z,13.27
2018-12-16T13:02:21.121Z,13.90
2018-12-16T13:04:55.329Z,13.93
2018-12-16T13:07:22.485Z,14.57
2018-12-16T13:09:49.516Z,13.73
2018-12-16T13:12:16.606Z,13.50
2018-12-16T13:14:44.761Z,13.40
2018-12-16T13:17:12.072Z,13.47
2018-12-16T13:19:39.316Z,13.77
2018-12-16T13:22:06.558Z,13.43
2018-12-16T13:24:33.908Z,13.13
2018-12-16T13:27:01.365Z,13.30
2018-12-16T13:29:28.436Z,13.13
2018-12-16T13:31:55.688Z,14.37
2018-12-16T13:34:22.918Z,12.93
2018-12-16T13:36:50.031Z,13.90
2018-12-16T13:39:17.223Z,12.17
2018-12-16T13:41:44.399Z,14.30
2018-12-16T13:44:11.548Z,13.60
2018-12-16T13:46:38.919Z,13.00
2018-12-16T13:49:06.829Z,13.53
2018-12-16T13:51:34.044Z,13.60
2018-12-16T13:54:01.163Z,15.30
2018-12-16T13:56:28.404Z,15.03
2018-12-16T13:58:55.672Z,15.50
2018-12-16T14:01:22.747Z,14.43
2018-12-16T14:03:50.068Z,16.30
2018-12-16T14:06:17.145Z,15.00
2018-12-16T14:08:44.233Z,14.27
2018-12-16T14:11:11.360Z,15.50
2018-12-16T14:13:38.432Z,14.63
2018-12-16T14:16:06.148Z,14.30
2018-12-16T14:18:33.489Z,14.30
2018-12-16T14:21:01.657Z,14.50
2018-12-16T14:23:28.783Z,15.60
2018-12-16T14:25:55.988Z,15.90
2018-12-16T14:28:23.872Z,13.07
2018-12-16T14:30:51.171Z,14.37
2018-12-16T14:33:18.339Z,15.30
2018-12-16T14:35:45.537Z,14.67
2018-12-16T14:38:13.812Z,16.27
2018-12-16T14:40:40.988Z,15.00
2018-12-16T14:43:08.217Z,14.90
2018-12-16T14:45:35.372Z,16.20
2018-12-16T14:48:02.545Z,17.00
2018-12-16T14:50:30.568Z,16.27
2018-12-16T14:52:57.684Z,16.90
2018-12-16T14:55:24.994Z,17.10
2018-12-16T14:57:52.073Z,15.93
2018-12-16T15:00:19.163Z,14.63
2018-12-16T15:02:46.254Z,14.60
2018-12-16T15:05:13.389Z,16.00
2018-12-16T15:07:40.452Z,15.90
2018-12-16T15:10:09.091Z,15.30
2018-12-16T15:12:36.177Z,14.90
2018-12-16T15:15:03.544Z,16.17
2018-12-16T15:17:42.785Z,14.17
2018-12-16T15:20:07.398Z,15.13
2018-12-16T15:22:34.468Z,15.13
2018-12-16T15:25:01.565Z,14.40
2018-12-16T15:27:28.693Z,14.30
2018-12-16T15:29:55.809Z,13.90
2018-12-16T15:32:22.938Z,15.10
2018-12-16T15:34:50.009Z,15.67
2018-12-16T15:37:18.110Z,15.20
2018-12-16T15:39:45.740Z,14.97
2018-12-16T15:42:13.057Z,15.90
2018-12-16T15:44:40.180Z,15.23
2018-12-16T15:47:07.303Z,14.50
2018-12-16T15:49:34.556Z,15.60
2018-12-16T15:52:01.648Z,15.63
2018-12-16T15:54:28.770Z,14.53
2018-12-16T15:56:56.121Z,14.60
2018-12-16T15:59:23.213Z,16.50
2018-12-16T16:01:50.426Z,16.30
2018-12-16T16:04:17.492Z,16.97
2018-12-16T16:06:44.558Z,16.73
2018-12-16T16:09:11.637Z,15.53
2018-12-16T16:11:39.956Z,16.03
2018-12-16T16:14:07.252Z,19.00
2018-12-16T16:16:34.308Z,18.90
2018-12-16T16:19:01.381Z,20.50
2018-12-16T16:21:28.578Z,18.63
2018-12-16T16:23:56.103Z,16.97
2018-12-16T16:26:24.434Z,18.50
2018-12-16T16:28:58.396Z,16.93
2018-12-16T16:31:25.493Z,17.17
2018-12-16T16:33:52.711Z,26.97
2018-12-16T16:36:19.807Z,18.43
2018-12-16T16:38:46.909Z,17.70
2018-12-16T16:41:14.044Z,17.60
2018-12-16T16:43:41.136Z,19.20
2018-12-16T16:46:08.276Z,18.80
2018-12-16T16:48:35.363Z,19.50
2018-12-16T16:51:03.221Z,19.20
2018-12-16T16:53:30.380Z,19.53
2018-12-16T16:55:57.502Z,19.87
2018-12-16T16:58:24.601Z,22.80
2018-12-16T17:00:51.711Z,22.50
2018-12-16T17:03:18.804Z,20.17
2018-12-16T17:05:45.991Z,16.60
2018-12-16T17:08:13.188Z,17.17
2018-12-16T17:10:40.360Z,17.10
2018-12-16T17:13:07.549Z,17.80
2018-12-16T17:15:34.757Z,23.37
2018-12-16T17:18:02.442Z,16.13
2018-12-16T17:20:29.537Z,16.10
2018-12-16T17:22:56.777Z,14.90
2018-12-16T17:25:23.975Z,14.67
2018-12-16T17:27:51.093Z,14.57
2018-12-16T17:30:18.210Z,13.67
2018-12-16T17:32:45.413Z,12.63
2018-12-16T17:35:12.630Z,13.00
2018-12-16T17:37:39.697Z,13.37
2018-12-16T17:40:06.845Z,15.00
2018-12-16T17:42:34.054Z,14.03
2018-12-16T17:45:01.127Z,13.10
2018-12-16T17:47:28.218Z,13.57
2018-12-16T17:49:59.568Z,12.43
2018-12-16T17:52:29.712Z,13.97
2018-12-16T17:54:56.800Z,14.70
2018-12-16T17:57:23.928Z,14.67
2018-12-16T17:59:51.075Z,15.93
2018-12-16T18:02:18.337Z,16.43
2018-12-16T18:04:45.417Z,13.83
2018-12-16T18:07:12.572Z,14.30
2018-12-16T18:09:39.688Z,14.27
2018-12-16T18:12:06.788Z,15.27
2018-12-16T18:14:33.847Z,15.80
2018-12-16T18:17:02.166Z,19.60
2018-12-16T18:19:29.320Z,16.03
2018-12-16T18:21:56.606Z,15.83
2018-12-16T18:24:23.772Z,16.67
2018-12-16T18:26:51.436Z,19.20
2018-12-16T18:29:18.581Z,19.37
2018-12-16T18:31:46.099Z,18.30
2018-12-16T18:34:13.233Z,19.50
2018-12-16T18:36:40.342Z,18.30
2018-12-16T18:39:08.640Z,16.83
2018-12-16T18:41:35.927Z,17.27
2018-12-16T18:44:03.719Z,16.60
2018-12-16T18:46:31.150Z,17.10
2018-12-16T18:48:58.344Z,16.40
2018-12-16T18:51:25.453Z,16.93
2018-12-16T18:53:52.829Z,16.13
2018-12-16T18:56:19.997Z,15.47
2018-12-16T18:58:47.096Z,14.57
2018-12-16T19:01:14.945Z,12.90
2018-12-16T19:03:42.017Z,14.40
2018-12-16T19:06:10.287Z,14.30
2018-12-16T19:08:38.078Z,12.60
2018-12-16T19:11:05.236Z,12.73
2018-12-16T19:13:33.863Z,12.00
2018-12-16T19:16:01.041Z,12.67
2018-12-16T19:18:28.771Z,14.50
2018-12-16T19:20:55.883Z,14.60
2018-12-16T19:23:23.069Z,15.00
2018-12-16T19:25:50.219Z,13.97
2018-12-16T19:28:17.389Z,14.47
2018-12-16T19:30:45.366Z,13.33
2018-12-16T19:33:14.483Z,13.60
2018-12-16T19:35:41.716Z,13.83
2018-12-16T19:38:08.814Z,14.77
2018-12-16T19:40:35.906Z,15.23
2018-12-16T19:43:04.573Z,15.50
2018-12-16T19:45:35.595Z,15.67
2018-12-16T19:48:02.761Z,14.70
2018-12-16T19:50:29.842Z,13.00
2018-12-16T19:52:58.703Z,11.53
2018-12-16T19:55:26.332Z,12.10
2018-12-16T19:57:53.576Z,12.20
2018-12-16T20:00:20.741Z,12.30
2018-12-16T20:02:47.965Z,14.97
2018-12-16T20:05:20.155Z,13.40
2018-12-16T20:07:48.437Z,13.67
2018-12-16T20:10:16.220Z,12.80
2018-12-16T20:12:44.330Z,13.70
2018-12-16T20:15:11.448Z,13.67
2018-12-16T20:17:39.204Z,13.20
2018-12-16T20:20:06.937Z,13.00
2018-12-16T20:22:34.110Z,11.60
2018-12-16T20:25:01.175Z,10.70
2018-12-16T20:27:28.295Z,12.90
2018-12-16T20:29:55.394Z,13.83
2018-12-16T20:32:22.603Z,12.60
2018-12-16T20:34:50.383Z,13.70
2018-12-16T20:37:17.540Z,12.83
2018-12-16T20:39:44.878Z,15.63
2018-12-16T20:42:11.988Z,12.40
2018-12-16T20:44:39.151Z,12.27
2018-12-16T20:47:06.268Z,11.77
2018-12-16T20:49:33.439Z,12.57
2018-12-16T20:52:00.685Z,11.33
2018-12-16T20:54:27.781Z,11.00
2018-12-16T20:56:55.882Z,11.10
2018-12-16T20:59:23.043Z,10.60
2018-12-16T21:01:50.218Z,10.27
2018-12-16T21:04:17.301Z,9.47
2018-12-16T21:06:44.814Z,9.30
2018-12-16T21:09:11.985Z,9.07
2018-12-16T21:11:44.727Z,8.53
2018-12-16T21:14:17.525Z,9.23
2018-12-16T21:16:51.057Z,8.93
2018-12-16T21:19:18.729Z,8.30
2018-12-16T21:21:45.856Z,9.03
2018-12-16T21:24:13.042Z,9.43
2018-12-16T21:26:40.492Z,10.37
2018-12-16T21:29:07.674Z,10.07
2018-12-16T21:31:34.829Z,9.60
2018-12-16T21:34:02.876Z,9.53
2018-12-16T21:36:30.122Z,11.73
2018-12-16T21:38:57.313Z,9.87
2018-12-16T21:41:24.983Z,10.50
2018-12-16T21:43:52.095Z,10.60
2018-12-16T21:46:22.053Z,10.27
2018-12-16T21:48:49.159Z,9.60
2018-12-16T21:51:16.921Z,9.20
2018-12-16T21:53:44.018Z,9.10
2018-12-16T21:56:11.137Z,9.47
2018-12-16T21:58:38.450Z,8.90
2018-12-16T22:01:05.666Z,9.27
2018-12-16T22:03:32.782Z,10.87
2018-12-16T22:06:00.091Z,10.60
2018-12-16T22:08:27.956Z,10.33
2018-12-16T22:10:55.537Z,11.33
2018-12-16T22:13:22.684Z,12.63
2018-12-16T22:15:49.803Z,13.17
2018-12-16T22:18:16.987Z,12.80
2018-12-16T22:20:44.186Z,12.57
2018-12-16T22:23:11.305Z,12.63
2018-12-16T22:25:38.947Z,10.70
2018-12-16T22:28:06.016Z,11.00
2018-12-16T22:30:33.350Z,10.30
2018-12-16T22:33:01.018Z,10.90
2018-12-16T22:35:28.761Z,10.53
2018-12-16T22:37:55.924Z,10.00
2018-12-16T22:40:23.253Z,10.00
2018-12-16T22:42:51.105Z,8.10
2018-12-16T22:45:18.319Z,7.80
2018-12-16T22:47:45.456Z,9.20
2018-12-16T22:50:12.672Z,8.80
2018-12-16T22:52:39.789Z,9.23
2018-12-16T22:55:06.924Z,9.00
2018-12-16T22:57:34.030Z,9.00
2018-12-16T23:00:01.105Z,8.70
2018-12-16T23:02:28.252Z,8.63
2018-12-16T23:04:57.945Z,9.10
2018-12-16T23:07:25.023Z,8.47
2018-12-16T23:09:52.152Z,7.27
2018-12-16T23:12:20.022Z,7.40
2018-12-16T23:14:47.228Z,8.30
2018-12-16T23:17:14.335Z,8.60
2018-12-16T23:19:43.546Z,7.80
2018-12-16T23:22:11.312Z,7.63
2018-12-16T23:24:38.676Z,7.70
2018-12-16T23:27:07.104Z,7.67
2018-12-16T23:29:34.413Z,8.20
2018-12-16T23:32:01.580Z,8.20
2018-12-16T23:34:29.339Z,7.70
2018-12-16T23:36:57.932Z,7.40
2018-12-16T23:39:25.041Z,7.27
2018-12-16T23:41:52.109Z,6.40
2018-12-16T23:44:19.189Z,5.90
2018-12-16T23:46:46.318Z,5.90
2018-12-16T23:49:13.409Z,5.67
2018-12-16T23:51:40.548Z,5.40
2018-12-16T23:54:07.616Z,5.70
2018-12-16T23:56:34.668Z,4.60
2018-12-16T23:59:01.725Z,5.90
